Kirsten H — WY7979 — position and weather

sailwx.info

Track history (hours):
 
Tides and Currents Weather Stations Pressure Air Temp Water Temp Dewpoint Dewpoint Depression Visibility Wind Speed Wind Dir Waves Ship Positions

Kirsten H

Owner: BOYER TOWING, KETCHIKAN, AK. More information available from US FCC via Universal Licensing System and Coast Guard Vessel Documentation Center.

Last reported at 2015-Oct-01 01:19 UTC. Time now 2016-Feb-08 08:12 UTC.
Position N 47°35' W 122°22'.
Warning: this ship's position is months out of date.

Length 22 m; draft 3.7 m.

Type: Tow > 200 m length. MMSI: 366623050.

Date/timePositionNaut miles runAvg speedWind from/ knotsBaromVisibWave heightAir tempDewpointWater temp
2015-Oct-01 01:19N 47°35' W 122°22'4 4.8
2015-Oct-01 00:33N 47°38' W 122°26'8 8.1
2015-Sep-30 23:33N 47°46' W 122°27'9 8.5
2015-Sep-30 22:33N 47°54' W 122°30'32 7.8
2015-Sep-30 18:27N 48°24' W 122°45'1010.7
2015-Sep-30 17:33N 48°34' W 122°45'10 9.5
2015-Sep-30 16:33N 48°43' W 122°46'8 8.2
2015-Sep-30 15:33N 48°48' W 122°56'8 8.3
2015-Sep-30 14:33N 48°53' W 123°06'9 8.5
2015-Sep-30 13:33N 48°59' W 123°16'8 8.2
2015-Sep-30 12:33N 49°04' W 123°25'8 8.2
2015-Sep-30 11:33N 49°10' W 123°34'9 8.7
2015-Sep-30 10:33N 49°17' W 123°42'9 8.0
2015-Sep-30 09:23N 49°23' W 123°53'7 8.3
2015-Sep-30 08:33N 49°26' W 124°02'9 8.4
2015-Sep-30 07:32N 49°31' W 124°13'8 8.3
2015-Sep-30 06:31N 49°35' W 124°25'9 8.6
2015-Sep-30 05:30N 49°41' W 124°35'9 8.5
2015-Sep-30 04:27N 49°46' W 124°46'9 8.5
2015-Sep-30 03:23N 49°52' W 124°57'7 8.3
2015-Sep-30 02:33N 49°56' W 125°06'9 8.0
2015-Sep-30 01:28N 50°03' W 125°14'9 9.9
2015-Sep-30 00:32N 50°11' W 125°22'4 4.5
2015-Sep-29 23:33N 50°15' W 125°23'70 6.3
2015-Sep-29 12:23N 50°44' W 127°03'6 7.4
2015-Sep-29 11:33N 50°47' W 127°11'8 7.8
2015-Sep-29 10:33N 50°53' W 127°21'8 8.4
2015-Sep-29 09:33N 50°58' W 127°31'8 8.3
2015-Sep-29 08:33N 51°04' W 127°41'8 8.2
2015-Sep-29 07:33N 51°09' W 127°50'9 8.3
2015-Sep-29 06:31N 51°18' W 127°53'9 8.4
2015-Sep-29 05:28N 51°27' W 127°52'  
2015-Sep-24 04:21N 58°16' W 135°37'5 6.5
2015-Sep-24 03:32N 58°18' W 135°46'8 8.1
2015-Sep-24 02:33N 58°20' W 136°01'8 7.5
2015-Sep-24 01:32N 58°18' W 136°16'  
Track history (hours):
 
Tides and Currents Weather Stations Pressure Air Temp Water Temp Dewpoint Dewpoint Depression Visibility Wind Speed Wind Dir Waves Ship Positions

Kirsten H

Owner: BOYER TOWING, KETCHIKAN, AK. More information available from US FCC via Universal Licensing System and Coast Guard Vessel Documentation Center.

Last reported at 2015-Oct-01 01:19 UTC. Time now 2016-Feb-08 08:12 UTC.
Position N 47°35' W 122°22'.
Warning: this ship's position is months out of date.

Length 22 m; draft 3.7 m.

Type: Tow > 200 m length. MMSI: 366623050.

Date/timePositionNaut miles runAvg speedWind from/ knotsBaromVisibWave heightAir tempDewpointWater temp
2015-Oct-01 01:19N 47°35' W 122°22'4 4.8
2015-Oct-01 00:33N 47°38' W 122°26'8 8.1
2015-Sep-30 23:33N 47°46' W 122°27'9 8.5
2015-Sep-30 22:33N 47°54' W 122°30'32 7.8
2015-Sep-30 18:27N 48°24' W 122°45'1010.7
2015-Sep-30 17:33N 48°34' W 122°45'10 9.5
2015-Sep-30 16:33N 48°43' W 122°46'8 8.2
2015-Sep-30 15:33N 48°48' W 122°56'8 8.3
2015-Sep-30 14:33N 48°53' W 123°06'9 8.5
2015-Sep-30 13:33N 48°59' W 123°16'8 8.2
2015-Sep-30 12:33N 49°04' W 123°25'8 8.2
2015-Sep-30 11:33N 49°10' W 123°34'9 8.7
2015-Sep-30 10:33N 49°17' W 123°42'9 8.0
2015-Sep-30 09:23N 49°23' W 123°53'7 8.3
2015-Sep-30 08:33N 49°26' W 124°02'9 8.4
2015-Sep-30 07:32N 49°31' W 124°13'8 8.3
2015-Sep-30 06:31N 49°35' W 124°25'9 8.6
2015-Sep-30 05:30N 49°41' W 124°35'9 8.5
2015-Sep-30 04:27N 49°46' W 124°46'9 8.5
2015-Sep-30 03:23N 49°52' W 124°57'7 8.3
2015-Sep-30 02:33N 49°56' W 125°06'9 8.0
2015-Sep-30 01:28N 50°03' W 125°14'9 9.9
2015-Sep-30 00:32N 50°11' W 125°22'4 4.5
2015-Sep-29 23:33N 50°15' W 125°23'70 6.3
2015-Sep-29 12:23N 50°44' W 127°03'6 7.4
2015-Sep-29 11:33N 50°47' W 127°11'8 7.8
2015-Sep-29 10:33N 50°53' W 127°21'8 8.4
2015-Sep-29 09:33N 50°58' W 127°31'8 8.3
2015-Sep-29 08:33N 51°04' W 127°41'8 8.2
2015-Sep-29 07:33N 51°09' W 127°50'9 8.3
2015-Sep-29 06:31N 51°18' W 127°53'9 8.4
2015-Sep-29 05:28N 51°27' W 127°52'  
2015-Sep-24 04:21N 58°16' W 135°37'5 6.5
2015-Sep-24 03:32N 58°18' W 135°46'8 8.1
2015-Sep-24 02:33N 58°20' W 136°01'8 7.5
2015-Sep-24 01:32N 58°18' W 136°16'  

Dump ship's entire track history